The Pas, Canada
Current Conditions -  °F | °C
As of 8:00 PM on Wednesday 22 Oct 2014 (Local Time) from CYQD Reporting Station
Few Clouds Few Clouds  
Wind Chill: 44°   Ceiling: Unl
Heat Index: 46°   Visibility: 15mi
Dew Point: 45°   Wind: 5mph
Humidity: 93%   Direction: 350°N
Pressure: 29.65"   Gusts: NA
Location:  53.81°N, 101.25°W
Report Text: CYQD 230100Z 35004KT 15SM FEW070 08/07 A2965 RMK AC1 SLP050
Loading
Personal Weather Stations






























Interactive Weather Map
Tropical Storm Tracking
New forecast layout! Learn more

10-Day Weather Forecast

Advertisements
Track Severe Weather on mobile